createdAt,value
2018-07-02T00:00:15.551Z,100590.70
2018-07-02T00:02:43.953Z,100582.14
2018-07-02T00:05:12.367Z,100581.41
2018-07-02T00:07:40.803Z,100583.14
2018-07-02T00:10:09.689Z,100583.80
2018-07-02T00:12:38.279Z,100579.44
2018-07-02T00:15:07.873Z,100579.86
2018-07-02T00:17:36.377Z,100569.17
2018-07-02T00:20:06.061Z,100578.55
2018-07-02T00:22:57.277Z,100583.23
2018-07-02T00:25:25.857Z,100577.86
2018-07-02T00:27:54.237Z,100571.66
2018-07-02T00:30:23.207Z,100569.39
2018-07-02T00:32:51.677Z,100570.17
2018-07-02T00:35:20.130Z,100574.45
2018-07-02T00:37:48.605Z,100573.34
2018-07-02T00:40:17.029Z,100567.18
2018-07-02T00:42:45.533Z,100565.69
2018-07-02T00:45:13.946Z,100563.95
2018-07-02T00:47:42.394Z,100571.01
2018-07-02T00:50:11.079Z,100566.19
2018-07-02T00:52:48.914Z,100572.11
2018-07-02T00:55:17.376Z,100571.42
2018-07-02T00:57:46.518Z,100569.84
2018-07-02T01:00:16.846Z,100573.97
2018-07-02T01:02:50.338Z,100571.39
2018-07-02T01:05:18.682Z,100568.17
2018-07-02T01:07:47.082Z,100563.98
2018-07-02T01:10:15.650Z,100568.67
2018-07-02T01:12:53.406Z,100566.61
2018-07-02T01:15:22.215Z,100565.67
2018-07-02T01:17:50.661Z,100567.61
2018-07-02T01:20:19.234Z,100561.29
2018-07-02T01:23:06.406Z,100559.47
2018-07-02T01:25:34.937Z,100559.39
2018-07-02T01:28:03.326Z,100560.25
2018-07-02T01:30:31.774Z,100550.69
2018-07-02T01:33:00.313Z,100555.36
2018-07-02T01:35:29.088Z,100548.72
2018-07-02T01:37:57.464Z,100551.63
2018-07-02T01:40:25.880Z,100551.88
2018-07-02T01:42:54.246Z,100547.23
2018-07-02T01:45:22.726Z,100541.77
2018-07-02T01:47:51.188Z,100540.83
2018-07-02T01:50:20.856Z,100540.13
2018-07-02T01:52:54.356Z,100542.42
2018-07-02T01:55:22.767Z,100533.91
2018-07-02T01:57:51.450Z,100535.17
2018-07-02T02:00:20.346Z,100533.02
2018-07-02T02:03:02.914Z,100529.23
2018-07-02T02:05:31.486Z,100533.58
2018-07-02T02:07:59.990Z,100533.91
2018-07-02T02:10:29.488Z,100532.40
2018-07-02T02:12:57.997Z,100532.07
2018-07-02T02:15:26.412Z,100523.23
2018-07-02T02:17:54.774Z,100524.28
2018-07-02T02:20:23.185Z,100522.77
2018-07-02T02:22:51.656Z,100526.41
2018-07-02T02:25:20.064Z,100522.13
2018-07-02T02:27:48.535Z,100522.69
2018-07-02T02:30:16.918Z,100517.80
2018-07-02T02:33:08.088Z,100518.57
2018-07-02T02:35:36.520Z,100518.10
2018-07-02T02:38:05.068Z,100519.81
2018-07-02T02:40:35.224Z,100520.56
2018-07-02T02:43:04.032Z,100514.67
2018-07-02T02:45:32.670Z,100524.38
2018-07-02T02:48:01.424Z,100516.30
2018-07-02T02:50:31.303Z,100512.03
2018-07-02T02:52:59.929Z,100509.45
2018-07-02T02:55:28.586Z,100516.06
2018-07-02T02:57:57.948Z,100517.06
2018-07-02T03:00:26.660Z,100520.20
2018-07-02T03:02:55.246Z,100517.67
2018-07-02T03:05:24.498Z,100518.77
2018-07-02T03:07:53.101Z,100514.00
2018-07-02T03:10:22.430Z,100509.13
2018-07-02T03:12:51.046Z,100509.27
2018-07-02T03:15:19.562Z,100503.88
2018-07-02T03:17:48.633Z,100506.02
2018-07-02T03:20:18.029Z,100518.16
2018-07-02T03:22:47.559Z,100526.98
2018-07-02T03:25:17.275Z,100521.44
2018-07-02T03:27:45.914Z,100515.23
2018-07-02T03:30:14.490Z,100514.81
2018-07-02T03:32:56.702Z,100521.76
2018-07-02T03:35:25.269Z,100518.19
2018-07-02T03:37:53.852Z,100518.39
2018-07-02T03:40:22.482Z,100519.73
2018-07-02T03:42:56.650Z,100525.94
2018-07-02T03:45:25.188Z,100525.94
2018-07-02T03:47:55.702Z,100533.59
2018-07-02T03:50:25.077Z,100531.28
2018-07-02T03:52:54.434Z,100534.14
2018-07-02T03:55:23.391Z,100537.67
2018-07-02T03:57:52.021Z,100538.94
2018-07-02T04:00:20.733Z,100537.13
2018-07-02T04:02:49.426Z,100541.51
2018-07-02T04:05:18.194Z,100531.34
2018-07-02T04:07:47.104Z,100526.77
2018-07-02T04:10:15.940Z,100533.59
2018-07-02T04:12:58.318Z,100539.34
2018-07-02T04:15:27.090Z,100538.43
2018-07-02T04:17:55.718Z,100543.30
2018-07-02T04:20:24.516Z,100550.20
2018-07-02T04:22:58.306Z,100554.06
2018-07-02T04:25:26.874Z,100558.86
2018-07-02T04:27:55.608Z,100551.07
2018-07-02T04:30:24.332Z,100563.25
2018-07-02T04:32:53.103Z,100559.36
2018-07-02T04:35:22.279Z,100560.83
2018-07-02T04:37:50.957Z,100561.27
2018-07-02T04:40:20.884Z,100558.38
2018-07-02T04:42:50.602Z,100558.59
2018-07-02T04:45:19.324Z,100558.49
2018-07-02T04:47:47.940Z,100561.16
2018-07-02T04:50:16.666Z,100564.42
2018-07-02T04:52:45.569Z,100562.56
2018-07-02T04:55:14.351Z,100552.02
2018-07-02T04:57:42.986Z,100555.77
2018-07-02T05:00:11.725Z,100551.76
2018-07-02T05:02:41.287Z,100553.52
2018-07-02T05:05:10.181Z,100563.96
2018-07-02T05:07:39.092Z,100563.19
2018-07-02T05:10:07.732Z,100571.23
2018-07-02T05:12:42.047Z,100566.82
2018-07-02T05:15:12.452Z,100567.45
2018-07-02T05:17:41.899Z,100574.48
2018-07-02T05:20:10.349Z,100573.45
2018-07-02T05:22:39.210Z,100581.86
2018-07-02T05:25:07.680Z,100575.61
2018-07-02T05:27:36.679Z,100586.88
2018-07-02T05:30:05.209Z,100585.84
2018-07-02T05:32:33.822Z,100576.32
2018-07-02T05:35:02.304Z,100581.30
2018-07-02T05:37:30.792Z,100577.14
2018-07-02T05:39:59.236Z,100581.02
2018-07-02T05:42:27.674Z,100577.89
2018-07-02T05:44:56.093Z,100576.97
2018-07-02T05:47:24.517Z,100580.05
2018-07-02T05:49:53.107Z,100580.85
2018-07-02T05:52:21.623Z,100577.53
2018-07-02T05:54:50.014Z,100574.08
2018-07-02T05:57:19.370Z,100579.76
2018-07-02T05:59:47.739Z,100580.18
2018-07-02T06:02:16.282Z,100575.05
2018-07-02T06:04:44.754Z,100580.97
2018-07-02T06:07:13.103Z,100583.73
2018-07-02T06:09:41.565Z,100568.78
2018-07-02T06:12:10.091Z,100572.91
2018-07-02T06:14:38.646Z,100578.63
2018-07-02T06:17:07.214Z,100578.09
2018-07-02T06:19:35.593Z,100571.53
2018-07-02T06:22:04.902Z,100568.67
2018-07-02T06:24:33.370Z,100574.22
2018-07-02T06:27:01.919Z,100573.93
2018-07-02T06:29:30.440Z,100574.00
2018-07-02T06:31:59.142Z,100579.61
2018-07-02T06:34:27.708Z,100575.05
2018-07-02T06:36:56.192Z,100575.50
2018-07-02T06:39:24.756Z,100575.27
2018-07-02T06:41:53.237Z,100576.39
2018-07-02T06:44:22.194Z,100571.36
2018-07-02T06:46:52.090Z,100572.84
2018-07-02T06:49:24.710Z,100570.50
2018-07-02T06:51:53.192Z,100573.02
2018-07-02T06:54:26.849Z,100574.98
2018-07-02T06:56:55.362Z,100571.58
2018-07-02T06:59:23.752Z,100570.95
2018-07-02T07:01:53.001Z,100571.04
2018-07-02T07:04:26.688Z,100567.30
2018-07-02T07:06:55.202Z,100582.16
2018-07-02T07:09:23.616Z,100587.05
2018-07-02T07:11:52.277Z,100583.58
2018-07-02T07:14:30.564Z,100580.97
2018-07-02T07:16:59.254Z,100587.43
2018-07-02T07:19:27.708Z,100589.02
2018-07-02T07:21:56.129Z,100585.35
2018-07-02T07:24:24.798Z,100583.30
2018-07-02T07:26:55.513Z,100584.32
2018-07-02T07:29:27.120Z,100586.77
2018-07-02T07:31:55.835Z,100580.44
2018-07-02T07:34:25.226Z,100579.55
2018-07-02T07:36:55.294Z,100578.27
2018-07-02T07:39:23.774Z,100576.30
2018-07-02T07:41:52.374Z,100577.76
2018-07-02T07:44:21.020Z,100578.42
2018-07-02T07:46:50.783Z,100576.21
2018-07-02T07:49:19.263Z,100574.11
2018-07-02T07:51:47.822Z,100583.87
2018-07-02T07:54:21.420Z,100582.82
2018-07-02T07:56:49.940Z,100582.64
2018-07-02T07:59:18.394Z,100574.92
2018-07-02T08:01:47.088Z,100575.06
2018-07-02T08:04:15.656Z,100572.79
2018-07-02T08:06:44.134Z,100577.89
2018-07-02T08:09:13.582Z,100572.51
2018-07-02T08:11:44.630Z,100569.81
2018-07-02T08:14:18.419Z,100564.92
2018-07-02T08:16:46.852Z,100568.54
2018-07-02T08:19:15.356Z,100571.42
2018-07-02T08:21:44.057Z,100566.94
2018-07-02T08:24:12.500Z,100565.52
2018-07-02T08:26:40.924Z,100564.88
2018-07-02T08:29:09.620Z,100562.33
2018-07-02T08:31:38.066Z,100556.95
2018-07-02T08:34:06.916Z,100554.88
2018-07-02T08:36:35.271Z,100551.41
2018-07-02T08:39:05.020Z,100541.69
2018-07-02T08:41:33.890Z,100547.05
2018-07-02T08:44:02.421Z,100552.91
2018-07-02T08:46:30.972Z,100545.63
2018-07-02T08:49:00.834Z,100542.70
2018-07-02T08:51:29.882Z,100546.61
2018-07-02T08:54:03.663Z,100544.92
2018-07-02T08:56:32.068Z,100540.92
2018-07-02T08:59:00.860Z,100550.62
2018-07-02T09:01:30.548Z,100550.88
2018-07-02T09:04:10.330Z,100545.83
2018-07-02T09:06:38.830Z,100543.44
2018-07-02T09:09:11.454Z,100540.09
2018-07-02T09:11:41.013Z,100533.48
2018-07-02T09:14:10.429Z,100527.65
2018-07-02T09:16:40.542Z,100534.39
2018-07-02T09:19:09.436Z,100529.59
2018-07-02T09:21:39.426Z,100527.02
2018-07-02T09:24:08.862Z,100536.02
2018-07-02T09:26:37.228Z,100535.69
2018-07-02T09:29:05.854Z,100529.27
2018-07-02T09:31:34.416Z,100530.20
2018-07-02T09:34:03.898Z,100534.92
2018-07-02T09:36:32.415Z,100537.63
2018-07-02T09:39:01.213Z,100538.42
2018-07-02T09:41:29.692Z,100543.38
2018-07-02T09:44:11.895Z,100538.80
2018-07-02T09:46:40.508Z,100535.64
2018-07-02T09:49:09.108Z,100529.00
2018-07-02T09:51:37.534Z,100523.38
2018-07-02T09:54:05.944Z,100530.72
2018-07-02T09:56:34.404Z,100527.45
2018-07-02T09:59:03.248Z,100527.34
2018-07-02T10:01:32.373Z,100515.37
2018-07-02T10:04:01.354Z,100512.64
2018-07-02T10:06:29.769Z,100516.25
2018-07-02T10:08:58.196Z,100514.55
2018-07-02T10:11:26.966Z,100511.27
2018-07-02T10:13:55.656Z,100516.50
2018-07-02T10:16:24.117Z,100512.58
2018-07-02T10:18:53.348Z,100514.78
2018-07-02T10:21:21.398Z,100518.46
2018-07-02T10:23:49.921Z,100512.23
2018-07-02T10:26:17.570Z,100517.14
2018-07-02T10:28:45.253Z,100523.75
2018-07-02T10:31:12.924Z,100516.83
2018-07-02T10:33:40.483Z,100512.72
2018-07-02T10:36:09.788Z,100518.00
2018-07-02T10:38:38.335Z,100511.69
2018-07-02T10:41:06.623Z,100503.44
2018-07-02T10:43:34.356Z,100499.92
2018-07-02T10:46:02.636Z,100504.08
2018-07-02T10:48:31.411Z,100501.89
2018-07-02T10:50:59.318Z,100506.75
2018-07-02T10:56:12.572Z,100494.16
2018-07-02T10:58:43.058Z,100496.70
2018-07-02T11:01:10.982Z,100493.65
2018-07-02T11:03:38.900Z,100488.31
2018-07-02T11:06:06.871Z,100491.19
2018-07-02T11:08:36.014Z,100483.77
2018-07-02T11:11:03.887Z,100476.80
2018-07-02T11:13:31.914Z,100480.58
2018-07-02T11:15:59.862Z,100475.52
2018-07-02T11:18:27.523Z,100473.08
2018-07-02T11:20:55.743Z,100462.95
2018-07-02T11:23:29.048Z,100468.59
2018-07-02T11:25:57.941Z,100473.22
2018-07-02T11:28:26.000Z,100465.85
2018-07-02T11:30:55.428Z,100471.13
2018-07-02T11:33:23.426Z,100463.35
2018-07-02T11:35:51.362Z,100455.92
2018-07-02T11:38:19.235Z,100446.93
2018-07-02T11:40:47.874Z,100446.28
2018-07-02T11:43:15.825Z,100447.64
2018-07-02T11:45:43.937Z,100449.74
2018-07-02T11:48:11.805Z,100445.83
2018-07-02T11:50:40.385Z,100449.05
2018-07-02T11:53:08.416Z,100439.23
2018-07-02T11:55:36.746Z,100442.64
2018-07-02T11:58:04.846Z,100448.85
2018-07-02T12:00:33.939Z,100446.47
2018-07-02T12:03:20.118Z,100435.98
2018-07-02T12:05:48.380Z,100433.50
2018-07-02T12:08:16.506Z,100444.08
2018-07-02T12:10:44.522Z,100438.37
2018-07-02T12:13:12.190Z,100441.98
2018-07-02T12:15:41.126Z,100439.70
2018-07-02T12:18:09.240Z,100434.56
2018-07-02T12:20:37.540Z,100438.09
2018-07-02T12:23:05.690Z,100432.31
2018-07-02T12:25:34.578Z,100427.41
2018-07-02T12:28:03.268Z,100426.17
2018-07-02T12:30:32.090Z,100426.14
2018-07-02T12:33:01.021Z,100424.25
2018-07-02T12:35:30.158Z,100420.19
2018-07-02T12:37:59.322Z,100416.53
2018-07-02T12:40:28.296Z,100413.87
2018-07-02T12:46:12.374Z,100411.44
2018-07-02T12:48:42.289Z,100421.49
2018-07-02T12:51:11.505Z,100409.87
2018-07-02T12:53:40.926Z,100410.55
2018-07-02T12:56:09.820Z,100411.36
2018-07-02T12:58:38.944Z,100402.36
2018-07-02T13:01:08.296Z,100410.56
2018-07-02T13:06:29.975Z,100419.20
2018-07-02T13:08:58.691Z,100412.34
2018-07-02T13:11:27.602Z,100403.64
2018-07-02T13:16:48.667Z,100399.72
2018-07-02T13:19:17.341Z,100393.35
2018-07-02T13:21:47.492Z,100394.28
2018-07-02T13:24:16.194Z,100390.20
2018-07-02T13:26:45.557Z,100390.38
2018-07-02T13:29:14.812Z,100391.29
2018-07-02T13:31:43.379Z,100387.55
2018-07-02T13:34:13.090Z,100401.15
2018-07-02T13:36:42.123Z,100388.48
2018-07-02T13:39:10.868Z,100389.37
2018-07-02T13:41:39.808Z,100393.11
2018-07-02T13:44:13.956Z,100392.58
2018-07-02T13:46:42.464Z,100385.07
2018-07-02T13:49:11.084Z,100388.59
2018-07-02T13:51:39.852Z,100381.81
2018-07-02T13:54:17.661Z,100386.66
2018-07-02T13:56:46.570Z,100378.59
2018-07-02T13:59:15.683Z,100374.02
2018-07-02T14:01:44.348Z,100383.37
2018-07-02T14:04:13.223Z,100374.77
2018-07-02T14:06:42.910Z,100368.82
2018-07-02T14:09:14.445Z,100359.69
2018-07-02T14:11:43.806Z,100357.55
2018-07-02T14:14:12.361Z,100355.47
2018-07-02T14:16:41.225Z,100350.66
2018-07-02T14:19:09.550Z,100355.53
2018-07-02T14:21:38.424Z,100356.73
2018-07-02T14:24:08.050Z,100357.52
2018-07-02T14:26:36.731Z,100359.05
2018-07-02T14:29:05.206Z,100354.81
2018-07-02T14:31:33.886Z,100356.61
2018-07-02T14:34:02.692Z,100358.78
2018-07-02T14:36:31.272Z,100361.91
2018-07-02T14:38:59.737Z,100352.16
2018-07-02T14:41:28.443Z,100354.11
2018-07-02T14:44:06.440Z,100357.05
2018-07-02T14:46:35.446Z,100360.86
2018-07-02T14:49:04.178Z,100350.51
2018-07-02T14:51:32.870Z,100351.50
2018-07-02T14:54:15.014Z,100346.45
2018-07-02T14:56:43.502Z,100337.87
2018-07-02T14:59:12.222Z,100346.25
2018-07-02T15:01:41.069Z,100342.34
2018-07-02T15:04:09.556Z,100338.75
2018-07-02T15:06:38.174Z,100332.35
2018-07-02T15:09:10.602Z,100349.30
2018-07-02T15:11:39.320Z,100328.78
2018-07-02T15:14:07.835Z,100333.59
2018-07-02T15:16:36.228Z,100334.64
2018-07-02T15:19:09.948Z,100338.48
2018-07-02T15:21:38.576Z,100339.58
2018-07-02T15:24:07.393Z,100332.53
2018-07-02T15:26:35.937Z,100335.84
2018-07-02T15:29:04.829Z,100337.14
2018-07-02T15:31:33.649Z,100333.26
2018-07-02T15:34:02.183Z,100334.86
2018-07-02T15:36:30.567Z,100337.48
2018-07-02T15:38:59.277Z,100339.95
2018-07-02T15:41:28.023Z,100338.63
2018-07-02T15:52:34.343Z,100336.39
2018-07-02T15:55:03.110Z,100329.41
2018-07-02T15:57:32.069Z,100332.52
2018-07-02T16:00:01.137Z,100335.33
2018-07-02T16:05:32.173Z,100336.48
2018-07-02T16:08:00.679Z,100341.70
2018-07-02T16:10:29.297Z,100340.56
2018-07-02T16:12:57.827Z,100337.84
2018-07-02T16:15:26.263Z,100326.59
2018-07-02T16:17:55.159Z,100322.50
2018-07-02T16:20:25.011Z,100329.94
2018-07-02T16:22:53.649Z,100327.12
2018-07-02T16:25:22.565Z,100321.64
2018-07-02T16:27:51.336Z,100327.03
2018-07-02T16:30:19.910Z,100321.05
2018-07-02T16:32:48.393Z,100320.66
2018-07-02T16:35:16.976Z,100319.81
2018-07-02T16:37:45.371Z,100314.50
2018-07-02T16:40:14.839Z,100323.03
2018-07-02T16:42:48.989Z,100312.11
2018-07-02T16:45:17.393Z,100313.08
2018-07-02T16:47:45.919Z,100315.42
2018-07-02T16:50:14.363Z,100316.40
2018-07-02T16:52:42.757Z,100315.80
2018-07-02T16:55:12.226Z,100316.52
2018-07-02T16:57:40.881Z,100319.87
2018-07-02T17:00:09.656Z,100326.41
2018-07-02T17:02:38.261Z,100320.20
2018-07-02T17:05:07.010Z,100319.56
2018-07-02T17:07:36.207Z,100315.44
2018-07-02T17:10:05.831Z,100315.09
2018-07-02T17:12:34.285Z,100324.59
2018-07-02T17:15:02.912Z,100324.71
2018-07-02T17:17:32.281Z,100318.64
2018-07-02T17:20:03.855Z,100320.38
2018-07-02T17:22:37.395Z,100320.95
2018-07-02T17:25:06.016Z,100323.46
2018-07-02T17:27:34.965Z,100315.58
2018-07-02T17:30:03.926Z,100313.62
2018-07-02T17:32:37.548Z,100314.56
2018-07-02T17:35:07.202Z,100316.89
2018-07-02T17:37:37.225Z,100318.19
2018-07-02T17:40:08.262Z,100318.89
2018-07-02T17:42:46.762Z,100324.93
2018-07-02T17:45:16.621Z,100318.28
2018-07-02T17:47:46.180Z,100325.41
2018-07-02T17:50:15.142Z,100326.05
2018-07-02T17:52:44.022Z,100328.79
2018-07-02T17:55:12.668Z,100317.92
2018-07-02T17:57:41.291Z,100318.11
2018-07-02T18:00:10.302Z,100320.64
2018-07-02T18:02:39.016Z,100316.33
2018-07-02T18:05:07.482Z,100316.92
2018-07-02T18:07:36.273Z,100317.91
2018-07-02T18:10:05.800Z,100315.13
2018-07-02T18:12:35.191Z,100317.42
2018-07-02T18:15:03.839Z,100314.52
2018-07-02T18:17:32.558Z,100319.16
2018-07-02T18:20:02.068Z,100323.28
2018-07-02T18:22:35.718Z,100326.53
2018-07-02T18:25:04.253Z,100329.78
2018-07-02T18:27:33.081Z,100319.63
2018-07-02T18:30:03.568Z,100322.50
2018-07-02T18:32:32.370Z,100321.09
2018-07-02T18:35:03.243Z,100318.32
2018-07-02T18:37:32.193Z,100323.48
2018-07-02T18:40:01.679Z,100312.19
2018-07-02T18:42:44.407Z,100319.72
2018-07-02T18:45:12.985Z,100321.02
2018-07-02T18:47:43.515Z,100316.80
2018-07-02T18:50:12.082Z,100323.55
2018-07-02T18:52:49.083Z,100330.52
2018-07-02T18:55:20.636Z,100320.03
2018-07-02T18:57:49.201Z,100327.25
2018-07-02T19:00:17.992Z,100329.14
2018-07-02T19:02:49.207Z,100337.01
2018-07-02T19:05:19.099Z,100333.52
2018-07-02T19:07:47.811Z,100333.83
2018-07-02T19:10:16.391Z,100338.61
2018-07-02T19:12:50.067Z,100332.04
2018-07-02T19:15:20.590Z,100327.36
2018-07-02T19:17:51.173Z,100329.48
2018-07-02T19:20:19.773Z,100334.30
2018-07-02T19:22:49.353Z,100328.65
2018-07-02T19:25:17.979Z,100330.72
2018-07-02T19:27:46.881Z,100337.47
2018-07-02T19:30:15.649Z,100344.80
2018-07-02T19:32:50.814Z,100347.12
2018-07-02T19:35:19.560Z,100342.61
2018-07-02T19:37:48.376Z,100348.50
2018-07-02T19:40:16.984Z,100348.42
2018-07-02T19:42:45.732Z,100351.58
2018-07-02T19:45:15.079Z,100354.66
2018-07-02T19:47:44.509Z,100354.44
2018-07-02T19:50:13.783Z,100364.60
2018-07-02T19:52:46.023Z,100364.06
2018-07-02T19:55:15.135Z,100362.71
2018-07-02T19:57:44.471Z,100368.57
2018-07-02T20:00:13.905Z,100367.52
2018-07-02T20:02:43.486Z,100374.80
2018-07-02T20:05:12.274Z,100372.09
2018-07-02T20:07:41.397Z,100376.39
2018-07-02T20:10:10.087Z,100377.27
2018-07-02T20:12:48.397Z,100380.48
2018-07-02T20:15:17.265Z,100385.91
2018-07-02T20:17:47.028Z,100383.89
2018-07-02T20:20:16.662Z,100388.69
2018-07-02T20:22:45.743Z,100388.62
2018-07-02T20:25:14.812Z,100387.62
2018-07-02T20:27:44.004Z,100389.53
2018-07-02T20:30:13.790Z,100387.77
2018-07-02T20:32:52.404Z,100392.39
2018-07-02T20:35:21.337Z,100395.05
2018-07-02T20:37:51.343Z,100396.88
2018-07-02T20:40:20.883Z,100393.91
2018-07-02T20:42:56.153Z,100394.31
2018-07-02T20:45:24.983Z,100394.45
2018-07-02T20:47:54.178Z,100401.19
2018-07-02T20:50:23.362Z,100405.53
2018-07-02T20:52:52.841Z,100399.18
2018-07-02T20:55:21.978Z,100409.18
2018-07-02T20:57:51.809Z,100406.73
2018-07-02T21:00:21.406Z,100403.35
2018-07-02T21:02:50.461Z,100399.98
2018-07-02T21:05:20.614Z,100402.50
2018-07-02T21:07:49.531Z,100402.14
2018-07-02T21:10:19.092Z,100409.55
2018-07-02T21:12:48.958Z,100410.95
2018-07-02T21:15:18.081Z,100410.30
2018-07-02T21:17:47.078Z,100407.39
2018-07-02T21:20:15.978Z,100414.00
2018-07-02T21:28:34.580Z,100409.80
2018-07-02T21:31:03.844Z,100410.62
2018-07-02T21:33:33.026Z,100413.23
2018-07-02T21:36:02.019Z,100413.87
2018-07-02T21:38:31.372Z,100407.50
2018-07-02T21:41:02.182Z,100407.63
2018-07-02T21:43:31.207Z,100404.28
2018-07-02T21:46:00.380Z,100409.87
2018-07-02T21:48:29.398Z,100405.38
2018-07-02T21:50:58.560Z,100407.13
2018-07-02T21:53:27.729Z,100414.15
2018-07-02T21:55:56.479Z,100412.25
2018-07-02T21:58:25.584Z,100417.50
2018-07-02T22:00:55.590Z,100413.13
2018-07-02T22:03:25.159Z,100408.06
2018-07-02T22:05:53.897Z,100409.48
2018-07-02T22:08:22.363Z,100411.55
2018-07-02T22:10:50.941Z,100407.16
2018-07-02T22:13:19.387Z,100409.34
2018-07-02T22:15:47.855Z,100416.58
2018-07-02T22:18:16.260Z,100407.89
2018-07-02T22:20:45.765Z,100410.55
2018-07-02T22:23:19.295Z,100401.56
2018-07-02T22:25:48.252Z,100413.95
2018-07-02T22:28:19.075Z,100404.81
2018-07-02T22:30:47.833Z,100413.63
2018-07-02T22:33:34.879Z,100406.22
2018-07-02T22:36:03.944Z,100408.01
2018-07-02T22:38:32.695Z,100406.36
2018-07-02T22:41:01.131Z,100401.73
2018-07-02T22:43:29.568Z,100401.84
2018-07-02T22:45:58.545Z,100407.50
2018-07-02T22:48:26.981Z,100401.35
2018-07-02T22:50:55.372Z,100410.27
2018-07-02T22:53:23.753Z,100407.34
2018-07-02T22:55:59.573Z,100408.93
2018-07-02T22:58:28.027Z,100401.75
2018-07-02T23:00:57.595Z,100407.93
2018-07-02T23:03:26.045Z,100402.23
2018-07-02T23:05:54.595Z,100408.06
2018-07-02T23:08:24.101Z,100400.90
2018-07-02T23:10:52.997Z,100400.90
2018-07-02T23:13:21.917Z,100405.41
2018-07-02T23:15:51.277Z,100404.73
2018-07-02T23:18:19.872Z,100405.86
2018-07-02T23:20:48.595Z,100403.94
2018-07-02T23:23:22.341Z,100402.05
2018-07-02T23:25:51.243Z,100406.47
2018-07-02T23:28:19.681Z,100398.34
2018-07-02T23:30:48.125Z,100399.66
2018-07-02T23:33:16.577Z,100408.59
2018-07-02T23:35:44.933Z,100408.05
2018-07-02T23:38:13.333Z,100406.50
2018-07-02T23:40:41.711Z,100402.34
2018-07-02T23:43:10.977Z,100396.86
2018-07-02T23:45:39.359Z,100390.88
2018-07-02T23:48:07.709Z,100397.30
2018-07-02T23:50:36.125Z,100401.05
2018-07-02T23:53:04.643Z,100399.61
2018-07-02T23:55:33.076Z,100393.32
2018-07-02T23:58:01.799Z,100391.20
